createdAt,value
2018-12-31T00:05:25.229Z,7.40
2018-12-31T00:08:14.064Z,7.90
2018-12-31T00:11:02.972Z,7.67
2018-12-31T00:13:51.886Z,7.67
2018-12-31T00:16:33.588Z,8.10
2018-12-31T00:19:22.443Z,9.70
2018-12-31T00:22:11.282Z,9.80
2018-12-31T00:25:00.230Z,9.37
2018-12-31T00:27:49.137Z,9.10
2018-12-31T00:30:37.994Z,10.43
2018-12-31T00:33:26.867Z,9.57
2018-12-31T00:36:15.704Z,8.97
2018-12-31T00:39:25.446Z,10.23
2018-12-31T00:42:14.291Z,7.93
2018-12-31T00:45:03.178Z,8.07
2018-12-31T00:47:52.042Z,9.83
2018-12-31T00:50:40.899Z,9.07
2018-12-31T00:53:29.750Z,8.83
2018-12-31T00:56:18.596Z,10.53
2018-12-31T00:59:00.390Z,9.77
2018-12-31T01:01:49.216Z,10.20
2018-12-31T01:04:38.050Z,8.97
2018-12-31T01:07:26.898Z,9.87
2018-12-31T01:10:15.752Z,9.23
2018-12-31T01:13:04.560Z,8.23
2018-12-31T01:15:53.766Z,8.10
2018-12-31T01:18:42.598Z,6.97
2018-12-31T01:21:31.438Z,7.17
2018-12-31T01:24:20.335Z,8.40
2018-12-31T01:27:09.190Z,6.63
2018-12-31T01:29:58.040Z,6.30
2018-12-31T01:32:46.875Z,7.53
2018-12-31T01:35:35.727Z,6.63
2018-12-31T01:38:24.519Z,5.60
2018-12-31T01:41:13.368Z,6.30
2018-12-31T01:44:02.179Z,6.23
2018-12-31T01:46:51.018Z,5.63
2018-12-31T01:49:39.874Z,5.03
2018-12-31T01:52:28.698Z,5.47
2018-12-31T01:55:17.529Z,5.50
2018-12-31T01:58:06.371Z,5.43
2018-12-31T02:00:55.196Z,5.50
2018-12-31T02:03:44.042Z,4.90
2018-12-31T02:06:32.851Z,4.70
2018-12-31T02:09:21.783Z,4.20
2018-12-31T02:12:03.242Z,5.20
2018-12-31T02:14:52.062Z,4.50
2018-12-31T02:17:40.918Z,5.67
2018-12-31T02:20:29.754Z,6.53
2018-12-31T02:23:18.588Z,6.57
2018-12-31T02:26:07.512Z,5.50
2018-12-31T02:28:56.336Z,5.63
2018-12-31T02:31:45.172Z,6.73
2018-12-31T02:34:34.018Z,7.13
2018-12-31T02:37:22.825Z,6.93
2018-12-31T02:40:11.685Z,5.67
2018-12-31T02:43:00.538Z,6.97
2018-12-31T02:45:42.633Z,8.23
2018-12-31T02:48:31.490Z,7.53
2018-12-31T02:51:20.338Z,7.20
2018-12-31T02:54:09.168Z,5.37
2018-12-31T02:56:57.997Z,6.43
2018-12-31T02:59:46.845Z,6.67
2018-12-31T03:02:35.688Z,6.00
2018-12-31T03:05:24.500Z,5.50
2018-12-31T03:08:06.084Z,6.10
2018-12-31T03:10:54.918Z,6.17
2018-12-31T03:13:43.740Z,5.97
2018-12-31T03:16:32.585Z,5.67
2018-12-31T03:19:21.451Z,6.87
2018-12-31T03:22:10.247Z,6.23
2018-12-31T03:24:59.100Z,5.83
2018-12-31T03:27:47.949Z,5.90
2018-12-31T03:30:36.758Z,6.67
2018-12-31T03:33:25.615Z,6.97
2018-12-31T03:36:14.444Z,5.60
2018-12-31T03:38:55.887Z,6.80
2018-12-31T03:41:44.794Z,6.97
2018-12-31T03:44:33.601Z,6.00
2018-12-31T03:47:22.533Z,5.53
2018-12-31T03:50:11.347Z,6.33
2018-12-31T03:53:00.179Z,6.40
2018-12-31T03:55:49.025Z,6.93
2018-12-31T03:58:37.858Z,7.10
2018-12-31T04:01:26.660Z,6.30
2018-12-31T04:04:15.511Z,7.10
2018-12-31T04:06:44.977Z,7.17
2018-12-31T04:09:35.037Z,6.87
2018-12-31T04:12:24.482Z,6.73
2018-12-31T04:15:13.315Z,6.23
2018-12-31T04:17:53.135Z,6.53
2018-12-31T04:20:41.975Z,6.77
2018-12-31T04:23:30.803Z,6.97
2018-12-31T04:26:19.641Z,7.80
2018-12-31T04:29:08.456Z,6.53
2018-12-31T04:31:57.321Z,6.87
2018-12-31T04:34:46.115Z,6.60
2018-12-31T04:37:34.966Z,7.30
2018-12-31T04:40:23.804Z,6.13
2018-12-31T04:43:12.606Z,8.27
2018-12-31T04:46:01.456Z,7.10
2018-12-31T04:48:43.259Z,7.00
2018-12-31T04:51:32.104Z,7.23
2018-12-31T04:54:20.967Z,7.80
2018-12-31T04:57:09.781Z,5.17
2018-12-31T04:59:58.627Z,6.60
2018-12-31T05:02:47.544Z,14.20
2018-12-31T05:05:36.354Z,7.33
2018-12-31T05:08:25.201Z,6.67
2018-12-31T05:11:14.046Z,6.00
2018-12-31T05:14:02.892Z,6.03
2018-12-31T05:16:51.781Z,8.13
2018-12-31T05:19:40.602Z,8.10
2018-12-31T05:22:29.465Z,6.43
2018-12-31T05:25:18.277Z,9.80
2018-12-31T05:28:07.100Z,9.17
2018-12-31T05:30:48.825Z,9.20
2018-12-31T05:33:37.625Z,7.83
2018-12-31T05:36:26.536Z,11.07
2018-12-31T05:39:15.376Z,10.07
2018-12-31T05:42:04.224Z,10.07
2018-12-31T05:44:53.044Z,8.87
2018-12-31T05:47:41.879Z,13.83
2018-12-31T05:50:30.718Z,10.33
2018-12-31T05:53:19.551Z,11.30
2018-12-31T05:56:08.405Z,13.07
2018-12-31T05:58:57.244Z,10.63
2018-12-31T06:01:46.054Z,13.90
2018-12-31T06:04:34.905Z,12.13
2018-12-31T06:07:23.720Z,14.33
2018-12-31T06:10:12.577Z,12.40
2018-12-31T06:13:01.419Z,17.20
2018-12-31T06:15:50.226Z,13.60
2018-12-31T06:18:39.072Z,14.00
2018-12-31T06:21:18.858Z,15.70
2018-12-31T06:24:07.684Z,15.53
2018-12-31T06:26:56.509Z,16.57
2018-12-31T06:29:45.354Z,14.57
2018-12-31T06:32:34.186Z,16.13
2018-12-31T06:35:23.043Z,13.80
2018-12-31T06:38:11.899Z,13.97
2018-12-31T06:41:00.710Z,13.43
2018-12-31T06:43:49.561Z,16.07
2018-12-31T06:46:38.395Z,16.83
2018-12-31T06:49:27.245Z,17.93
2018-12-31T06:52:16.091Z,14.93
2018-12-31T06:55:05.436Z,15.30
2018-12-31T06:57:54.274Z,15.03
2018-12-31T07:00:43.112Z,16.97
2018-12-31T07:03:44.038Z,14.87
2018-12-31T07:06:22.566Z,13.43
2018-12-31T07:09:11.417Z,16.70
2018-12-31T07:11:53.484Z,21.00
2018-12-31T07:14:42.331Z,18.60
2018-12-31T07:17:31.172Z,17.57
2018-12-31T07:20:20.019Z,21.53
2018-12-31T07:23:08.872Z,16.07
2018-12-31T07:25:57.812Z,20.03
2018-12-31T07:28:46.633Z,16.30
2018-12-31T07:31:35.445Z,18.67
2018-12-31T07:34:24.287Z,16.40
2018-12-31T07:37:13.119Z,19.67
2018-12-31T07:40:01.977Z,18.53
2018-12-31T07:42:50.820Z,15.83
2018-12-31T07:45:39.672Z,14.73
2018-12-31T07:48:28.482Z,18.07
2018-12-31T07:51:10.586Z,18.40
2018-12-31T07:53:59.468Z,17.23
2018-12-31T07:56:48.337Z,18.40
2018-12-31T07:59:37.240Z,16.10
2018-12-31T08:02:26.107Z,15.20
2018-12-31T08:05:14.906Z,15.87
2018-12-31T08:08:03.773Z,12.67
2018-12-31T08:10:52.578Z,17.67
2018-12-31T08:13:41.428Z,16.20
2018-12-31T08:16:30.278Z,17.70
2018-12-31T08:19:19.096Z,15.40
2018-12-31T08:22:07.951Z,18.97
2018-12-31T08:24:56.754Z,14.43
2018-12-31T08:27:45.611Z,14.57
2018-12-31T08:30:34.471Z,14.50
2018-12-31T08:33:23.293Z,16.17
2018-12-31T08:36:12.141Z,21.47
2018-12-31T08:39:00.988Z,17.00
2018-12-31T08:41:40.855Z,21.70
2018-12-31T08:44:29.714Z,19.37
2018-12-31T08:47:18.530Z,16.80
2018-12-31T08:50:02.826Z,20.03
2018-12-31T08:52:50.854Z,23.27
2018-12-31T08:55:39.725Z,19.30
2018-12-31T08:58:28.576Z,20.80
2018-12-31T09:01:17.405Z,18.40
2018-12-31T09:04:06.254Z,21.20
2018-12-31T09:06:55.092Z,19.20
2018-12-31T09:09:43.914Z,20.17
2018-12-31T09:12:32.763Z,22.23
2018-12-31T09:15:21.689Z,19.07
2018-12-31T09:18:10.504Z,21.47
2018-12-31T09:20:59.351Z,23.23
2018-12-31T09:23:48.246Z,20.93
2018-12-31T09:26:37.099Z,22.37
2018-12-31T09:29:25.966Z,21.40
2018-12-31T09:31:55.454Z,18.97
2018-12-31T09:34:44.306Z,19.70
2018-12-31T09:37:33.154Z,18.67
2018-12-31T09:40:14.971Z,18.70
2018-12-31T09:42:44.483Z,20.03
2018-12-31T09:45:33.332Z,23.50
2018-12-31T09:48:22.157Z,18.30
2018-12-31T09:51:11.013Z,19.67
2018-12-31T09:53:59.816Z,21.10
2018-12-31T09:56:29.331Z,23.60
2018-12-31T09:59:18.147Z,22.00
2018-12-31T10:02:06.985Z,18.90
2018-12-31T10:04:55.806Z,18.10
2018-12-31T10:07:25.338Z,24.27
2018-12-31T10:10:14.152Z,23.37
2018-12-31T10:13:03.010Z,24.93
2018-12-31T10:15:51.829Z,22.17
2018-12-31T10:18:40.685Z,20.97
2018-12-31T10:21:29.513Z,20.93
2018-12-31T10:24:18.377Z,21.73
2018-12-31T10:27:07.192Z,21.27
2018-12-31T10:29:56.050Z,21.87
2018-12-31T10:32:44.894Z,23.60
2018-12-31T10:35:26.520Z,21.67
2018-12-31T10:37:55.981Z,17.63
2018-12-31T10:40:44.827Z,20.27
2018-12-31T10:43:33.663Z,22.13
2018-12-31T10:46:22.517Z,22.07
2018-12-31T10:49:11.387Z,23.10
2018-12-31T10:52:00.245Z,24.73
2018-12-31T10:54:49.059Z,24.83
2018-12-31T10:57:37.949Z,21.73
2018-12-31T11:00:26.840Z,20.67
2018-12-31T11:03:08.932Z,20.70
2018-12-31T11:05:57.761Z,20.33
2018-12-31T11:08:46.702Z,22.50
2018-12-31T11:11:35.574Z,19.70
2018-12-31T11:14:24.440Z,18.57
2018-12-31T11:17:13.314Z,21.60
2018-12-31T11:20:09.618Z,18.30
2018-12-31T11:22:58.443Z,20.57
2018-12-31T11:25:47.288Z,23.93
2018-12-31T11:28:36.125Z,24.13
2018-12-31T11:31:30.247Z,23.90
2018-12-31T11:34:15.558Z,24.93
2018-12-31T11:37:04.481Z,24.13
2018-12-31T11:39:53.284Z,24.43
2018-12-31T11:42:42.145Z,21.53
2018-12-31T11:45:30.966Z,21.07
2018-12-31T11:48:19.847Z,20.37
2018-12-31T11:51:08.643Z,22.30
2018-12-31T11:53:38.145Z,23.70
2018-12-31T11:56:27.004Z,23.07
2018-12-31T11:59:15.923Z,22.00
2018-12-31T12:02:04.888Z,21.97
2018-12-31T12:04:53.816Z,21.23
2018-12-31T12:07:42.646Z,20.80
2018-12-31T12:10:31.566Z,17.77
2018-12-31T12:13:20.443Z,16.37
2018-12-31T12:16:09.324Z,20.43
2018-12-31T12:18:58.153Z,23.93
2018-12-31T12:21:47.016Z,18.97
2018-12-31T12:24:35.862Z,21.33
2018-12-31T12:27:25.068Z,18.17
2018-12-31T12:30:13.933Z,19.33
2018-12-31T12:33:02.942Z,19.77
2018-12-31T12:35:51.781Z,22.50
2018-12-31T12:38:33.495Z,19.17
2018-12-31T12:41:22.400Z,22.13
2018-12-31T12:44:11.222Z,22.73
2018-12-31T12:47:00.087Z,24.30
2018-12-31T12:49:49.005Z,20.63
2018-12-31T12:52:37.939Z,22.07
2018-12-31T12:55:26.759Z,21.07
2018-12-31T12:58:15.616Z,22.33
2018-12-31T13:01:04.575Z,23.13
2018-12-31T13:03:44.453Z,18.90
2018-12-31T13:06:33.449Z,22.20
2018-12-31T13:09:22.310Z,21.00
2018-12-31T13:12:11.147Z,22.20
2018-12-31T13:15:00.012Z,20.43
2018-12-31T13:17:48.905Z,16.90
2018-12-31T13:20:37.751Z,21.83
2018-12-31T13:23:26.690Z,20.40
2018-12-31T13:25:56.186Z,18.63
2018-12-31T13:28:45.015Z,24.87
2018-12-31T13:31:33.861Z,18.80
2018-12-31T13:34:22.738Z,19.63
2018-12-31T13:37:11.607Z,19.57
2018-12-31T13:40:00.508Z,17.57
2018-12-31T13:42:49.289Z,17.20
2018-12-31T13:45:38.214Z,14.07
2018-12-31T13:48:27.045Z,16.93
2018-12-31T13:51:08.961Z,15.43
2018-12-31T13:53:57.856Z,17.97
2018-12-31T13:56:46.707Z,14.73
2018-12-31T13:59:35.548Z,19.73
2018-12-31T14:02:24.405Z,20.53
2018-12-31T14:05:13.248Z,17.57
2018-12-31T14:08:02.158Z,16.97
2018-12-31T14:10:50.962Z,17.23
2018-12-31T14:13:39.916Z,18.33
2018-12-31T14:16:28.844Z,19.13
2018-12-31T14:19:17.689Z,18.73
2018-12-31T14:22:06.609Z,16.17
2018-12-31T14:24:36.107Z,16.20
2018-12-31T14:27:24.968Z,17.97
2018-12-31T14:30:13.938Z,17.20
2018-12-31T14:33:02.787Z,18.07
2018-12-31T14:35:51.742Z,16.77
2018-12-31T14:38:40.686Z,21.47
2018-12-31T14:41:29.630Z,19.70
2018-12-31T14:44:18.596Z,20.83
2018-12-31T14:47:07.465Z,19.30
2018-12-31T14:49:56.356Z,17.90
2018-12-31T14:52:25.877Z,18.73
2018-12-31T14:55:14.740Z,16.93
2018-12-31T14:58:03.671Z,21.27
2018-12-31T15:00:52.567Z,21.80
2018-12-31T15:03:22.108Z,20.27
2018-12-31T15:06:10.941Z,19.33
2018-12-31T15:08:59.822Z,20.77
2018-12-31T15:11:48.631Z,21.13
2018-12-31T15:14:37.493Z,21.57
2018-12-31T15:17:19.397Z,21.50
2018-12-31T15:20:29.137Z,20.30
2018-12-31T15:23:19.790Z,20.87
2018-12-31T15:26:08.683Z,21.93
2018-12-31T15:28:57.837Z,21.40
2018-12-31T15:31:46.695Z,20.20
2018-12-31T15:34:35.636Z,22.60
2018-12-31T15:37:05.187Z,19.93
2018-12-31T15:39:54.043Z,20.80
2018-12-31T15:42:42.849Z,19.87
2018-12-31T15:45:33.255Z,17.83
2018-12-31T15:48:02.963Z,21.57
2018-12-31T15:50:51.840Z,20.77
2018-12-31T15:53:40.746Z,20.43
2018-12-31T15:56:22.314Z,26.83
2018-12-31T15:59:11.136Z,19.13
2018-12-31T16:02:00.016Z,24.67
2018-12-31T16:04:48.871Z,21.63
2018-12-31T16:07:45.405Z,20.37
2018-12-31T16:10:28.274Z,20.23
2018-12-31T16:13:18.949Z,18.80
2018-12-31T16:16:07.816Z,20.00
2018-12-31T16:18:56.633Z,19.93
2018-12-31T16:21:45.484Z,16.30
2018-12-31T16:24:34.299Z,16.20
2018-12-31T16:27:16.022Z,19.73
2018-12-31T16:33:20.816Z,15.87
2018-12-31T16:36:09.700Z,15.27
2018-12-31T16:38:58.655Z,16.93
2018-12-31T16:41:47.545Z,19.67
2018-12-31T16:44:37.376Z,18.93
2018-12-31T16:47:07.611Z,15.37
2018-12-31T16:49:56.561Z,17.83
2018-12-31T16:52:45.386Z,19.47
2018-12-31T16:55:34.255Z,19.27
2018-12-31T16:58:23.187Z,14.63
2018-12-31T17:01:11.994Z,17.27
2018-12-31T17:04:00.929Z,14.47
2018-12-31T17:06:49.831Z,15.73
2018-12-31T17:09:38.710Z,16.77
2018-12-31T17:12:27.527Z,16.40
2018-12-31T17:14:58.739Z,16.00
2018-12-31T17:17:47.613Z,13.37
2018-12-31T17:20:36.442Z,14.93
2018-12-31T17:23:25.308Z,15.43
2018-12-31T17:26:14.167Z,16.17
2018-12-31T17:29:02.988Z,13.57
2018-12-31T17:31:51.960Z,14.27
2018-12-31T17:34:40.809Z,14.87
2018-12-31T17:37:29.712Z,16.33
2018-12-31T17:39:59.209Z,13.53
2018-12-31T17:42:48.143Z,14.60
2018-12-31T17:45:36.995Z,15.40
2018-12-31T17:48:25.894Z,14.23
2018-12-31T17:51:15.403Z,12.87
2018-12-31T17:54:05.438Z,14.20
2018-12-31T17:56:34.932Z,17.27
2018-12-31T17:59:23.951Z,11.97
2018-12-31T18:02:12.773Z,12.00
2018-12-31T18:05:03.419Z,13.23
2018-12-31T18:07:52.302Z,11.87
2018-12-31T18:10:41.428Z,12.97
2018-12-31T18:13:10.957Z,12.93
2018-12-31T18:15:59.856Z,12.70
2018-12-31T18:18:48.670Z,11.97
2018-12-31T18:21:37.504Z,13.73
2018-12-31T18:24:06.993Z,20.67
2018-12-31T18:26:49.108Z,23.90
2018-12-31T18:29:37.926Z,22.03
2018-12-31T18:32:26.752Z,24.30
2018-12-31T18:35:15.637Z,21.27
2018-12-31T18:38:04.566Z,24.50
2018-12-31T18:40:34.064Z,24.33
2018-12-31T18:43:22.898Z,24.97
2018-12-31T18:46:11.844Z,23.40
2018-12-31T18:49:00.742Z,21.97
2018-12-31T18:51:49.604Z,24.80
2018-12-31T18:54:31.675Z,28.10
2018-12-31T18:57:20.562Z,23.13
2018-12-31T19:00:09.525Z,23.13
2018-12-31T19:02:58.389Z,23.77
2018-12-31T19:05:40.531Z,27.27
2018-12-31T19:08:29.397Z,30.40
2018-12-31T19:10:58.880Z,24.80
2018-12-31T19:13:47.729Z,23.23
2018-12-31T19:16:36.637Z,26.37
2018-12-31T19:19:25.479Z,27.83
2018-12-31T19:22:14.385Z,27.43
2018-12-31T19:25:03.229Z,26.40
2018-12-31T19:27:52.084Z,26.83
2018-12-31T19:30:40.956Z,23.87
2018-12-31T19:33:29.766Z,38.90
2018-12-31T19:36:18.637Z,35.00
2018-12-31T19:39:07.591Z,28.50
2018-12-31T19:41:56.499Z,26.53
2018-12-31T19:44:45.380Z,32.00
2018-12-31T19:47:34.189Z,27.43
2018-12-31T19:50:23.065Z,23.63
2018-12-31T19:53:13.522Z,26.43
2018-12-31T19:56:02.538Z,30.37
2018-12-31T19:58:51.386Z,27.83
2018-12-31T20:01:40.311Z,29.17
2018-12-31T20:04:23.967Z,29.60
2018-12-31T20:07:01.065Z,31.23
2018-12-31T20:09:44.001Z,29.87
2018-12-31T20:12:32.879Z,29.07
2018-12-31T20:15:21.699Z,27.27
2018-12-31T20:18:10.573Z,27.77
2018-12-31T20:20:59.475Z,24.53
2018-12-31T20:23:48.376Z,29.43
2018-12-31T20:26:37.303Z,24.50
2018-12-31T20:29:26.154Z,25.10
2018-12-31T20:32:15.043Z,26.40
2018-12-31T20:35:03.988Z,29.97
2018-12-31T20:37:53.007Z,28.00
2018-12-31T20:40:41.857Z,25.17
2018-12-31T20:43:30.699Z,24.97
2018-12-31T20:46:19.673Z,22.97
2018-12-31T20:49:01.477Z,21.27
2018-12-31T20:51:50.400Z,24.37
2018-12-31T20:54:39.263Z,24.80
2018-12-31T20:57:28.086Z,22.57
2018-12-31T20:59:57.751Z,21.93
2018-12-31T21:02:46.670Z,22.43
2018-12-31T21:05:35.542Z,26.43
2018-12-31T21:08:24.562Z,17.70
2018-12-31T21:11:13.405Z,21.70
2018-12-31T21:14:02.240Z,21.53
2018-12-31T21:16:51.094Z,22.20
2018-12-31T21:19:39.899Z,19.57
2018-12-31T21:22:28.827Z,19.80
2018-12-31T21:25:17.682Z,20.13
2018-12-31T21:28:06.565Z,18.67
2018-12-31T21:30:48.755Z,20.30
2018-12-31T21:33:37.587Z,23.47
2018-12-31T21:36:26.426Z,20.97
2018-12-31T21:39:15.279Z,19.30
2018-12-31T21:42:04.191Z,21.57
2018-12-31T21:44:53.285Z,24.27
2018-12-31T21:47:42.176Z,21.83
2018-12-31T21:50:13.376Z,25.30
2018-12-31T21:53:02.223Z,21.47
2018-12-31T21:55:51.108Z,27.30
2018-12-31T21:58:40.006Z,26.77
2018-12-31T22:01:28.935Z,24.00
2018-12-31T22:04:11.087Z,22.50
2018-12-31T22:06:59.957Z,19.67
2018-12-31T22:09:48.859Z,21.37
2018-12-31T22:12:37.726Z,26.00
2018-12-31T22:15:28.344Z,22.87
2018-12-31T22:18:17.222Z,18.43
2018-12-31T22:21:07.778Z,25.50
2018-12-31T22:23:56.622Z,28.73
2018-12-31T22:26:47.166Z,22.50
2018-12-31T22:29:36.048Z,26.40
2018-12-31T22:32:26.574Z,27.60
2018-12-31T22:35:15.426Z,25.17
2018-12-31T22:38:04.563Z,25.07
2018-12-31T22:40:53.400Z,23.07
2018-12-31T22:43:42.246Z,20.27
2018-12-31T22:46:31.068Z,22.00
2018-12-31T22:49:19.933Z,24.17
2018-12-31T22:52:08.774Z,24.53
2018-12-31T22:54:57.738Z,23.00
2018-12-31T22:57:46.546Z,24.43
2018-12-31T23:00:29.206Z,25.73
2018-12-31T23:03:18.033Z,36.13
2018-12-31T23:06:06.985Z,65.77
2018-12-31T23:08:55.811Z,171.37
2018-12-31T23:11:44.690Z,231.23
2018-12-31T23:14:33.503Z,238.30
2018-12-31T23:17:22.380Z,230.63
2018-12-31T23:20:32.083Z,168.73
2018-12-31T23:23:21.244Z,165.27
2018-12-31T23:26:10.073Z,141.67
2018-12-31T23:29:00.796Z,135.17
2018-12-31T23:31:49.664Z,135.00
2018-12-31T23:34:40.219Z,134.17
2018-12-31T23:37:29.029Z,131.57
2018-12-31T23:40:19.615Z,112.07
2018-12-31T23:43:08.493Z,93.47
2018-12-31T23:45:59.069Z,92.83
2018-12-31T23:48:47.865Z,84.37
2018-12-31T23:51:38.446Z,71.37
2018-12-31T23:54:27.355Z,57.67
2018-12-31T23:57:17.889Z,52.57
